header
chart

Reported and forecast weather at local airports

Important: not to be used for flight planning purposes.


EGBB METAR fetched   Thursday 29th Jun @ 13:24:14
EGBB 291220Z 31008KT 9999 VCSH BKN011 OVC021 13/11

EGCC METAR fetched   Thursday 29th Jun @ 13:24:12
EGCC 291150Z 30011KT 4000 -RADZ BKN004 OVC027 12/11 Q0995

EGGP METAR fetched   Thursday 29th Jun @ 13:24:12
EGGP 291220Z 32010KT 290V350 9000 VCSH FEW007 SCT011 BKN031 14/12 Q0995

EGNH METAR fetched   Thursday 29th Jun @ 13:24:13
EGNH 291220Z 32016KT 9999 BKN022 14/12 Q0995

EGNM METAR fetched   Thursday 29th Jun @ 13:24:14
EGNM 291150Z 35010KT 310V020 9999 SCT007 BKN013 13/12 Q0994

EGOV METAR fetched   Thursday 29th Jun @ 13:24:15
EGOV 291150Z 33020G31KT 9999 FEW008 BKN011 OVC018 12/11 Q0998 GRN TEMPO 7000 -RADZ GRN


EGBB TAF fetched   Thursday 29th Jun @ 13:24:15
TAF EGBB 291101Z 2912/3012 29008KT 9000 BKN008 BECMG 2912/2915 9999 SCT009 BKN020 TEMPO 2915/2920 8000 -RA BKN009 BECMG 2920/2923 BKN007 TEMPO 2920/3012 8000 -RA PROB30 TEMPO 3002/3008 4000 RADZ BR BKN004 BECMG 3009/3012 BKN012

EGCC TAF fetched   Thursday 29th Jun @ 13:24:12
TAF EGCC 291101Z 2912/3018 29009KT 4500 -RADZ BKN006 BECMG 2912/2915 9999 NSW FEW008 BKN020 PROB40 TEMPO 2915/2921 6000 -RADZ BKN008 BECMG 2921/2924 6000 BKN005 TEMPO 2921/3007 3000 -RADZ BR BKN003 PROB30 TEMPO 2922/3006 1400 RADZ BKN001 BECMG 3007/3010 9999 SCT012 BKN020 PROB40 TEMPO 3010/3018 8000 -RA BKN012 BECMG 3013/3016 01010KT

EGGP TAF fetched   Thursday 29th Jun @ 13:24:13
TAF EGGP 291101Z 2912/3012 31009KT 9999 SCT008 BKN020 TEMPO 2912/3012 6000 -RADZ BKN008 PROB30 TEMPO 2922/3006 4000 RADZ BR BKN004

EGNM TAF fetched   Thursday 29th Jun @ 13:24:14
TAF TAF EGNM 291101Z 2912/3012 33009KT 9999 BKN008 TEMPO 2912/2918 SCT008 TEMPO 2918/3012 3000 RADZ BR BKN004 PROB30 2923/3008 0500 FG BKN001

EGOV TAF fetched   Thursday 29th Jun @ 13:24:15
TAF TAF EGOV 010100Z 3021/0102 CNL

Every effort is made to ensure that this information is free from errors but as it is provided by a third party the accuracy of the reports cannot be guaranteed.